Blue Oak Ranch Reserve, California Weather observations

Data are for 10 minute period ending at time listed.
 Day   Time   Solar   Ave.   Ave.  Ave.  Vector  Max.   Baro.   Total    
  of    of     Rad.   Air    Rel.  Wind   Wind   Wind  Press.  Precip.   
Year   Day            Temp.  Hum.  Speed  Dir.   Gust                    
2017   (PST)  Kw/m2    F      %     mph   deg.    mph    mb.     in.     
-------------------------------------------------------------------------
 148   18:50   0.05   60.2    71    0.7   187     1.9   948.7    0.00 
 148   19:00   0.03   59.2    73    0.8   315     1.8   948.5    0.00 
 148   19:10   0.01   57.3    78    1.2    56     3.1   948.5    0.00 
 148   19:20   0.01   55.8    82    0.7    82     2.9   948.4    0.00 
 148   19:30   0.00   55.3    83    2.7   288     3.4   948.2    0.00 
 148   19:40   0.00   54.5    84    2.1   294     3.6   948.4    0.00 
 148   19:50   0.00   53.5    86    1.4    73     3.1   948.6    0.00 
 148   20:00   0.00   53.2    87    1.0    26     2.3   948.7    0.00 
 148   20:10   0.00   52.8    88    1.3   291     2.9   948.7    0.00 
 148   20:20   0.00   52.3    89    1.2     4     3.7   948.9    0.00 
 148   20:30   0.00   51.6    89    1.7    68     3.5   948.9    0.00 
 148   20:40   0.00   51.4    90    2.2   303     3.5   948.9    0.00 
 148   20:50   0.00   50.8    90    3.8   288     4.7   948.9    0.00 
 148   21:00   0.00   50.9    91    1.3   347     3.3   949.1    0.00 
 148   21:10   0.00   50.7    92    1.0    85     2.0   949.3    0.00 
 148   21:20   0.00   50.4    92    0.7    73     1.4   949.3    0.00 
 148   21:30   0.00   50.0    92    1.2    64     2.2   949.3    0.00 
 148   21:40   0.00   49.5    92    0.7   313     2.3   949.3    0.00 
 148   21:50   0.00   49.3    93    1.1   309     3.4   949.3    0.00 
 148   22:00   0.00   49.1    93    1.9   297     3.9   949.2    0.00 
 148   22:10   0.00   49.3    93    1.1   319     3.9   949.2    0.00 
 148   22:20   0.00   48.6    94    2.0    78     3.2   949.1    0.00 
 148   22:30   0.00   48.4    94    2.0   298     4.2   949.0    0.00 
 148   22:40   0.00   47.5    94    1.9   296     3.6   949.0    0.00 
 148   22:50   0.00   48.2    94    1.4    78     2.9   948.9    0.00 
 148   23:00   0.00   47.5    94    3.6   290     5.7   948.8    0.00 
 148   23:10   0.00   47.5    95    1.7    70     2.9   948.8    0.00 
 148   23:20   0.00   47.8    94    2.0   319     3.7   948.7    0.00 
 148   23:30   0.00   47.3    95    1.4   297     3.5   948.6    0.00 
 148   23:40   0.00   47.3    95    1.6   309     3.8   948.5    0.00 
 148   23:50   0.00   47.5    95    1.4    51     2.9   948.4    0.00 
 149    0:00   0.00   47.7    95    1.0   249     2.7   948.4    0.00 
 149    0:10   0.00   47.2    95    1.7   255     4.6   948.4    0.00 
 149    0:20   0.00   46.9    95    1.1   315     4.4   948.5    0.00 
 149    0:30   0.00   46.8    95    0.9   288     2.4   948.3    0.00 
 149    0:40   0.00   46.5    96    1.8   288     3.7   948.3    0.00 
 149    0:50   0.00   46.2    96    0.9    58     2.0   948.4    0.00 
 149    1:00   0.00   45.9    96    2.1   300     3.9   948.3    0.00 
 149    1:10   0.00   45.8    96    1.3   336     2.9   948.2    0.00 
 149    1:20   0.00   45.6    96    1.5   291     3.1   948.0    0.00 
 149    1:30   0.00   45.4    96    1.0   304     2.5   947.9    0.00 
 149    1:40   0.00   45.4    97    0.9    83     2.0   947.8    0.00 
 149    1:50   0.00   46.2    97    3.2   265     7.8   948.0    0.00 
 149    2:00   0.00   46.8    97    1.4   242     5.3   948.1    0.00 
 149    2:10   0.00   47.0    97    0.9    78     1.9   948.2    0.00 
 149    2:20   0.00   47.0    96    0.4    97     1.5   948.0    0.00 
 149    2:30   0.00   46.8    96    1.7   298     2.5   947.9    0.00 
 149    2:40   0.00   46.4    96    0.6   246     1.9   948.0    0.00 
 149    2:50   0.00   46.3    97    0.9    55     2.3   948.1    0.00 
 149    3:00   0.00   46.3    97    0.6    65     2.1   948.0    0.00 
 149    3:10   0.00   46.2    97    2.7   290     4.2   947.8    0.00 
 149    3:20   0.00   45.9    97    3.4   279     6.2   947.8    0.00 
 149    3:30   0.00   46.5    97    1.4   280     5.8   948.1    0.00 
 149    3:40   0.00   46.9    97    1.2    58     3.9   948.0    0.00 
 149    3:50   0.00   46.7    97    0.6    24     2.1   947.8    0.00 
 149    4:00   0.00   46.4    97    1.8   261     3.1   947.9    0.00 
 149    4:10   0.00   46.7    97    1.4   127     3.0   948.1    0.00 
 149    4:20   0.00   46.9    97    3.0    55     5.4   947.8    0.00 
 149    4:30   0.00   46.5    97    0.6   269     1.8   947.7    0.00 
 149    4:40   0.00   46.4    97    0.5    62     1.5   947.7    0.00 
 149    4:50   0.00   46.4    97    0.3   328     1.5   947.8    0.00 
 149    5:00   0.01   46.2    97    0.9    54     2.9   947.8    0.00 
 149    5:10   0.01   45.9    97    0.4    51     1.3   947.7    0.00 
 149    5:20   0.01   45.6    97    0.5   266     2.3   947.6    0.00 
 149    5:30   0.02   45.3    97    1.6   295     2.8   947.6    0.00 
 149    5:40   0.02   45.1    97    1.3    65     3.1   947.6    0.00 
 149    5:50   0.03   45.3    97    0.9    46     3.0   947.6    0.00 
 149    6:00   0.04   45.9    97    0.1    75     1.2   947.5    0.00 
 149    6:10   0.08   46.3    97    1.2   295     2.9   947.6    0.00 
 149    6:20   0.11   47.1    97    2.0    63     4.2   947.5    0.00 
 149    6:30   0.16   48.5    97    1.2   273     3.7   947.3    0.00 
 149    6:40   0.13   49.1    96    3.1   264     8.3   947.5    0.00 
 149    6:50   0.09   49.0    96    3.0   257     7.1   947.7    0.00 
 149    7:00   0.13   49.0    97    2.2   327     7.4   947.6    0.00 
 149    7:10   0.16   49.6    97    3.0   274     5.9   947.6    0.00 
 149    7:20   0.15   49.6    96    4.5   292     5.9   947.7    0.00 
 149    7:30   0.18   49.6    96    2.3   282     5.2   947.8    0.00 
 149    7:40   0.24   50.4    96    1.3   251     3.8   947.9    0.00 
 149    7:50   0.29   51.3    96    1.1   310     3.7   948.0    0.00 
 149    8:00   0.25   52.0    96    1.8   275     3.9   948.0    0.00 
 149    8:10   0.28   52.3    95    0.4   297     2.3   947.7    0.00 
 149    8:20   0.39   53.4    95    2.6   233     6.6   947.7    0.00 
 149    8:30   0.46   53.9    94    4.2   242     6.6   947.6    0.00 
 149    8:40   0.53   54.7    92    4.2   222     7.3   947.8    0.00 
 149    8:50   0.55   55.2    88    3.0   228     5.7   947.8    0.00 
 149    9:00   0.58   57.3    80    2.3   249     5.2   947.7    0.00 
 149    9:10   0.59   58.2    77    3.5   251     6.5   947.6    0.00 
 149    9:20   0.68   59.3    74    3.1   270     5.1   947.5    0.00 
 149    9:30   0.78   60.9    71    4.3   259     7.7   947.5    0.00 
 149    9:40   0.77   60.5    70    4.1   234     7.5   947.6    0.00 
 149    9:50   0.82   60.7    70    4.5   268     8.0   947.6    0.00 
 149   10:00   0.86   61.8    68    4.9   266     7.7   947.6    0.00 
 149   10:10   0.89   62.9    66    3.7   256     8.6   947.6    0.00 
 149   10:20   0.90   63.2    66    5.5   262     9.7   947.7    0.00 
 149   10:30   0.91   62.9    66    6.2   262     9.6   947.8    0.00 
 149   10:40   0.93   63.1    66    5.6   245    11.0   947.8    0.00 
 149   10:50   0.91   61.6    68    5.6   224     9.1   947.9    0.00 
 149   11:00   0.95   63.0    66    3.9   253     7.0   947.8    0.00 
 149   11:10   0.85   64.1    65    4.9   256     8.4   947.8    0.00 
 149   11:20   0.96   64.2    64    5.6   250     8.6   947.8    0.00 
 149   11:30   0.76   64.7    63    4.3   244     7.5   947.8    0.00 
 149   11:40   0.92   64.9    63    4.6   244     7.7   947.8    0.00 
 149   11:50   0.87   65.1    63    4.8   241     9.1   947.8    0.00 
 149   12:00   1.03   66.4    62    5.1   248     8.9   947.8    0.00 
 149   12:10   0.78   64.9    64    5.4   210    10.2   947.8    0.00 
 149   12:20   0.88   65.0    64    5.3   228    12.0   947.7    0.00 
 149   12:30   0.75   65.5    62    6.1   240    10.2   947.6    0.00 
 149   12:40   0.76   64.9    63    5.6   234    10.9   947.7    0.00 
 149   12:50   0.86   64.6    63    6.9   232    11.0   947.6    0.00 
 149   13:00   0.95   65.6    62    5.6   234     9.1   947.6    0.00 
 149   13:10   0.80   67.2    59    6.6   239    11.2   947.5    0.00 
 149   13:20   0.66   65.8    61    7.1   247    12.0   947.6    0.00 
 149   13:30   1.00   66.3    60    6.5   250    12.4   947.6    0.00 
 149   13:40   0.73   67.1    59    6.2   253    11.2   947.5    0.00 
 149   13:50   0.86   68.6    56    5.4   253    11.2   947.4    0.00 
 149   14:00   0.40   68.6    55    5.3   273    11.5   947.2    0.00 
 149   14:10   0.57   67.2    57    6.9   255    11.2   947.2    0.00 
 149   14:20   0.47   66.1    59    5.8   245    10.7   947.1    0.00 
 149   14:30   0.32   65.0    61    3.8   245     9.3   947.0    0.00 
 149   14:40   0.58   64.9    62    5.2   256     9.3   946.9    0.00 
 149   14:50   0.77   66.1    60    5.6   250    10.0   946.8    0.00 
 149   15:00   0.81   68.4    54    5.5   250    12.0   946.8    0.00 
 149   15:10   0.73   69.0    54    6.2   250     9.9   946.8    0.00 
 149   15:20   0.59   67.7    56    5.3   246     9.1   946.7    0.00 
 149   15:30   0.78   69.1    54    4.7   236     8.5   946.5    0.00 
 149   15:40   0.67   69.9    54    5.5   248    10.6   946.4    0.00 
 149   15:50   0.64   69.0    55    4.7   252     9.9   946.3    0.00 
 149   16:00   0.62   69.5    54    5.2   245    11.1   946.3    0.00 
 149   16:10   0.57   69.2    54    4.8   252     9.8   946.3    0.00 
 149   16:20   0.53   68.1    55    6.0   246    11.9   946.3    0.00 
 149   16:30   0.49   68.4    54    6.1   246    10.7   946.2    0.00 
 149   16:40   0.46   67.5    55    7.6   258    12.0   946.1    0.00 
 149   16:50   0.42   67.3    55    6.0   256     9.9   946.1    0.00 
 149   17:00   0.39   67.2    56    4.6   250     9.0   946.1    0.00 
 149   17:10   0.36   67.5    55    5.3   253    10.4   946.1    0.00 
 149   17:20   0.33   67.4    55    4.3   250     6.8   946.1    0.00 
 149   17:30   0.29   66.7    57    5.2   249     9.5   946.1    0.00 
 149   17:40   0.26   65.4    59    4.9   235     9.1   946.3    0.00 
 149   17:50   0.23   64.8    60    3.5   244     7.3   946.3    0.00 
 149   18:00   0.20   64.1    61    3.9   244     7.6   946.3    0.00 
 149   18:10   0.17   62.8    64    4.2   232     7.1   946.4    0.00 
 149   18:20   0.15   62.0    65    3.0   235     5.2   946.3    0.00 
 149   18:30   0.12   62.3    65    2.4   259     4.6   946.2    0.00 
 149   18:40   0.09   61.7    66    1.4   199     3.0   946.2    0.00 

Return to Blue Oak Ranch Reserve graphs page.


Western Regional Climate Center,wrcc@dri.edu